Time;durP1;ratioP1;P1;durP2;ratioP2;P2;SDS_P1;SDS_P2;PMS_P1;PMS_P2;Temp;Humidity;BMP_temperature;BMP_pressure;BME280_temperature;BME280_humidity;BME280_pressure;Samples;Min_cycle;Max_cycle;Signal;HPM_P1;HPM_P2
2023/07/11 00:00:30;;;;;;;3.22;1.60;;;;;;;;;;4859396;29;20048;-86
2023/07/11 00:02:59;;;;;;;4.63;1.50;;;;;;;;;;4856699;29;20135;-87
2023/07/11 00:05:26;;;;;;;3.05;1.38;;;;;;;;;;4862920;29;20087;-87
2023/07/11 00:07:53;;;;;;;3.38;1.70;;;;;;;;;;4861114;29;20054;-87
2023/07/11 00:10:21;;;;;;;4.10;1.70;;;;;;;;;;4858738;29;20063;-86
2023/07/11 00:12:48;;;;;;;4.30;1.45;;;;;;;;;;4858866;29;20459;-87
2023/07/11 00:15:16;;;;;;;2.65;1.60;;;;;;;;;;4854978;29;20052;-87
2023/07/11 00:17:43;;;;;;;3.30;1.70;;;;;;;;;;4833483;29;20044;-87
2023/07/11 00:20:14;;;;;;;2.13;1.60;;;;;;;;;;4843878;29;20089;-87
2023/07/11 00:22:42;;;;;;;4.97;1.77;;;;;;;;;;4862220;29;20928;-87
2023/07/11 00:25:09;;;;;;;;;;;;;;;;;;4871676;29;20095;-87
2023/07/11 00:27:36;;;;;;;2.25;1.88;;;;;;;;;;4879665;29;19923;-87
2023/07/11 00:30:04;;;;;;;3.47;2.03;;;;;;;;;;4847572;29;20036;-87
2023/07/11 00:32:31;;;;;;;2.47;1.80;;;;;;;;;;4885739;29;20045;-86
2023/07/11 00:34:58;;;;;;;4.40;1.90;;;;;;;;;;4874675;29;20080;-86
2023/07/11 00:37:27;;;;;;;6.07;2.63;;;;;;;;;;4854583;29;20044;-87
2023/07/11 00:39:56;;;;;;;4.57;2.20;;;;;;;;;;4854216;29;20052;-87
2023/07/11 00:42:23;;;;;;;4.03;2.30;;;;;;;;;;4868956;29;20069;-87
2023/07/11 00:45:10;;;;;;;4.68;2.08;;;;;;;;;;4892941;29;20045;-87
2023/07/11 00:47:37;;;;;;;3.15;2.15;;;;;;;;;;4882263;29;20048;-87
2023/07/11 00:50:05;;;;;;;3.45;2.00;;;;;;;;;;4861422;29;20187;-86
2023/07/11 00:52:34;;;;;;;5.97;2.15;;;;;;;;;;4881947;29;20051;-86
2023/07/11 00:55:02;;;;;;;4.47;2.08;;;;;;;;;;4858458;29;20044;-86
2023/07/11 00:57:30;;;;;;;4.28;2.20;;;;;;;;;;4865181;29;20032;-87
2023/07/11 00:59:58;;;;;;;7.07;2.17;;;;;;;;;;4855178;29;20040;-87
2023/07/11 01:02:27;;;;;;;4.80;2.20;;;;;;;;;;4863814;29;20044;-87
2023/07/11 01:04:54;;;;;;;4.65;2.15;;;;;;;;;;4859605;29;20067;-87
2023/07/11 01:07:24;;;;;;;4.05;2.38;;;;;;;;;;4847908;29;20048;-86
2023/07/11 01:09:52;;;;;;;6.18;2.53;;;;;;;;;;4879058;29;20144;-87
2023/07/11 01:12:20;;;;;;;4.00;2.20;;;;;;;;;;4879441;29;20045;-87
2023/07/11 01:14:47;;;;;;;6.90;2.10;;;;;;;;;;4849727;29;20055;-87
2023/07/11 01:17:22;;;;;;;5.55;2.35;;;;;;;;;;4861397;29;20308;-87
2023/07/11 01:19:49;;;;;;;6.70;2.15;;;;;;;;;;4859788;29;20152;-87
2023/07/11 01:22:17;;;;;;;11.07;2.90;;;;;;;;;;4860139;29;20132;-87
2023/07/11 01:24:44;;;;;;;4.75;2.30;;;;;;;;;;4839502;29;20065;-87
2023/07/11 01:27:11;;;;;;;4.00;2.10;;;;;;;;;;4858194;29;20086;-88
2023/07/11 01:29:38;;;;;;;4.82;1.98;;;;;;;;;;4850172;29;20139;-87
2023/07/11 01:32:04;;;;;;;4.18;2.20;;;;;;;;;;4857689;29;20075;-87
2023/07/11 01:34:31;;;;;;;5.63;1.88;;;;;;;;;;4845062;29;20045;-87
2023/07/11 01:36:57;;;;;;;4.28;2.03;;;;;;;;;;4826978;29;20044;-88
2023/07/11 01:39:25;;;;;;;4.65;2.00;;;;;;;;;;4845047;29;20058;-87
2023/07/11 01:41:55;;;;;;;5.88;2.90;;;;;;;;;;4863380;29;20037;-86
2023/07/11 01:44:22;;;;;;;5.18;2.28;;;;;;;;;;4840651;29;20448;-87
2023/07/11 01:46:50;;;;;;;5.83;2.10;;;;;;;;;;4847129;29;20044;-87
2023/07/11 01:49:17;;;;;;;5.70;2.10;;;;;;;;;;4843024;29;20071;-87
2023/07/11 01:51:47;;;;;;;5.30;2.45;;;;;;;;;;4864785;29;20305;-87
2023/07/11 01:54:15;;;;;;;4.95;2.20;;;;;;;;;;4825170;29;20067;-87
2023/07/11 01:56:42;;;;;;;4.63;1.98;;;;;;;;;;4850133;29;20051;-87
2023/07/11 01:59:09;;;;;;;5.38;2.38;;;;;;;;;;4841859;29;20047;-86
2023/07/11 02:01:37;;;;;;;2.70;2.10;;;;;;;;;;4834501;29;20054;-86
2023/07/11 02:04:04;;;;;;;6.55;2.20;;;;;;;;;;4845888;29;20055;-86
2023/07/11 02:06:31;;;;;;;5.88;2.00;;;;;;;;;;4861496;29;20398;-86
2023/07/11 02:09:02;;;;;;;4.43;2.22;;;;;;;;;;4858469;29;20045;-86
2023/07/11 02:11:29;;;;;;;4.68;2.10;;;;;;;;;;4864689;29;20095;-87
2023/07/11 02:13:56;;;;;;;3.58;2.25;;;;;;;;;;4842432;29;20049;-86
2023/07/11 02:16:23;;;;;;;6.75;2.30;;;;;;;;;;4840670;29;20047;-87
2023/07/11 02:18:51;;;;;;;6.40;3.10;;;;;;;;;;4852716;29;20511;-87
2023/07/11 02:21:18;;;;;;;6.03;2.50;;;;;;;;;;4859169;29;20044;-87
2023/07/11 02:23:45;;;;;;;4.85;2.40;;;;;;;;;;4865892;29;20068;-87
2023/07/11 02:26:12;;;;;;;5.10;2.03;;;;;;;;;;4846873;29;20040;-87
2023/07/11 02:28:39;;;;;;;3.38;2.40;;;;;;;;;;4847828;29;20051;-86
2023/07/11 02:31:07;;;;;;;4.53;2.63;;;;;;;;;;4876598;29;20044;-87
2023/07/11 02:33:34;;;;;;;5.97;2.40;;;;;;;;;;4867893;29;20051;-87
2023/07/11 02:36:01;;;;;;;5.57;2.70;;;;;;;;;;4864203;29;20038;-87
2023/07/11 02:38:28;;;;;;;3.83;2.53;;;;;;;;;;4848127;29;20068;-87
2023/07/11 02:40:55;;;;;;;4.47;2.23;;;;;;;;;;4865594;29;20122;-86
2023/07/11 02:43:22;;;;;;;4.07;2.20;;;;;;;;;;4848626;29;20040;-86
2023/07/11 02:45:51;;;;;;;6.47;2.45;;;;;;;;;;4851370;29;20169;-87
2023/07/11 02:48:18;;;;;;;5.28;2.97;;;;;;;;;;4875491;29;20183;-86
2023/07/11 02:50:46;;;;;;;4.35;2.33;;;;;;;;;;4877806;29;20048;-86
2023/07/11 02:53:14;;;;;;;8.88;2.60;;;;;;;;;;4897469;29;20407;-86
2023/07/11 02:55:41;;;;;;;4.57;2.63;;;;;;;;;;4852827;29;20139;-86
2023/07/11 02:58:09;;;;;;;6.43;2.60;;;;;;;;;;4864263;29;20051;-86
2023/07/11 03:00:38;;;;;;;5.07;2.58;;;;;;;;;;4900557;29;20044;-87
2023/07/11 03:03:05;;;;;;;5.60;3.10;;;;;;;;;;4847973;29;20036;-86
2023/07/11 03:05:32;;;;;;;5.50;2.67;;;;;;;;;;4879973;29;20051;-86
2023/07/11 03:07:59;;;;;;;4.63;2.22;;;;;;;;;;4847175;29;20146;-86
2023/07/11 03:10:26;;;;;;;7.03;2.80;;;;;;;;;;4869534;29;20459;-87
2023/07/11 03:12:53;;;;;;;6.97;2.63;;;;;;;;;;4866080;29;20043;-87
2023/07/11 03:15:21;;;;;;;4.25;2.85;;;;;;;;;;4847142;29;20059;-87
2023/07/11 03:17:48;;;;;;;5.63;2.87;;;;;;;;;;4864804;29;20372;-87
2023/07/11 03:20:15;;;;;;;4.85;2.90;;;;;;;;;;4877398;29;20047;-86
2023/07/11 03:22:42;;;;;;;5.47;2.73;;;;;;;;;;4855645;29;20040;-86
2023/07/11 03:25:10;;;;;;;5.20;2.63;;;;;;;;;;4849435;29;20142;-86
2023/07/11 03:27:37;;;;;;;7.70;2.60;;;;;;;;;;4858115;29;21480;-86
2023/07/11 03:30:04;;;;;;;7.28;2.90;;;;;;;;;;4860056;29;20055;-86
2023/07/11 03:32:31;;;;;;;4.38;2.75;;;;;;;;;;4860894;29;20132;-87
2023/07/11 03:34:58;;;;;;;4.43;2.57;;;;;;;;;;4855195;29;20048;-87
2023/07/11 03:37:26;;;;;;;6.33;3.13;;;;;;;;;;4878314;29;20052;-87
2023/07/11 03:39:57;;;;;;;7.80;3.88;;;;;;;;;;4861204;29;20051;-87
2023/07/11 03:42:25;;;;;;;4.40;2.80;;;;;;;;;;4863081;29;20455;-86
2023/07/11 03:44:55;;;;;;;5.35;2.67;;;;;;;;;;4848211;29;20080;-86
2023/07/11 03:47:22;;;;;;;3.75;2.60;;;;;;;;;;4833637;29;20517;-86
2023/07/11 03:49:50;;;;;;;5.72;3.10;;;;;;;;;;4841875;29;20041;-86
2023/07/11 03:52:16;;;;;;;5.47;3.45;;;;;;;;;;4821918;29;20044;-86
2023/07/11 03:54:44;;;;;;;3.65;2.50;;;;;;;;;;4847420;29;20058;-86
2023/07/11 03:57:11;;;;;;;4.77;2.90;;;;;;;;;;4841522;29;20040;-86
2023/07/11 03:59:38;;;;;;;6.67;2.93;;;;;;;;;;4861290;29;20044;-86
2023/07/11 04:02:04;;;;;;;4.30;2.88;;;;;;;;;;4821788;29;20309;-86
2023/07/11 04:04:33;;;;;;;5.65;2.90;;;;;;;;;;4865924;29;20047;-86
2023/07/11 04:07:00;;;;;;;5.38;2.90;;;;;;;;;;4863727;29;20044;-86
2023/07/11 04:09:27;;;;;;;5.23;2.90;;;;;;;;;;4861230;29;20045;-86
2023/07/11 04:11:55;;;;;;;5.22;2.83;;;;;;;;;;4856579;29;20305;-86
2023/07/11 04:14:22;;;;;;;5.20;2.73;;;;;;;;;;4862151;29;20036;-86
2023/07/11 04:16:49;;;;;;;8.67;3.37;;;;;;;;;;4830409;29;20052;-86
2023/07/11 04:19:18;;;;;;;4.43;3.15;;;;;;;;;;4829014;29;20052;-86
2023/07/11 04:21:45;;;;;;;5.40;2.75;;;;;;;;;;4855436;29;20079;-86
2023/07/11 04:24:13;;;;;;;7.20;3.30;;;;;;;;;;4831087;29;20060;-86
2023/07/11 04:26:40;;;;;;;5.87;3.00;;;;;;;;;;4834367;29;20052;-86
2023/07/11 04:29:07;;;;;;;5.05;3.42;;;;;;;;;;4851621;29;20313;-86
2023/07/11 04:31:36;;;;;;;8.32;3.47;;;;;;;;;;4830478;29;20133;-87
2023/07/11 04:34:03;;;;;;;4.90;3.15;;;;;;;;;;4840585;29;20048;-86
2023/07/11 04:36:30;;;;;;;3.80;3.08;;;;;;;;;;4835042;29;20126;-84
2023/07/11 04:38:58;;;;;;;6.80;3.07;;;;;;;;;;4869355;29;20049;-84
2023/07/11 04:41:25;;;;;;;6.90;3.67;;;;;;;;;;4831583;29;20396;-86
2023/07/11 04:43:54;;;;;;;5.43;3.08;;;;;;;;;;4857746;29;20479;-86
2023/07/11 04:46:21;;;;;;;7.20;3.13;;;;;;;;;;4843817;29;20051;-86
2023/07/11 04:48:49;;;;;;;4.80;3.30;;;;;;;;;;4873612;29;20041;-85
2023/07/11 04:51:16;;;;;;;6.82;3.00;;;;;;;;;;4853801;29;21294;-86
2023/07/11 04:53:44;;;;;;;8.48;3.20;;;;;;;;;;4879362;29;20040;-86
2023/07/11 04:56:11;;;;;;;5.18;3.35;;;;;;;;;;4839362;29;20488;-86
2023/07/11 04:58:38;;;;;;;5.77;3.27;;;;;;;;;;4836538;29;20051;-86
2023/07/11 05:01:15;;;;;;;8.13;4.10;;;;;;;;;;4842539;29;20048;-86
2023/07/11 05:03:45;;;;;;;7.18;3.53;;;;;;;;;;4859790;29;20713;-86
2023/07/11 05:06:13;;;;;;;6.70;3.88;;;;;;;;;;4852348;29;20052;-86
2023/07/11 05:08:40;;;;;;;8.15;3.53;;;;;;;;;;4840141;29;20830;-86
2023/07/11 05:11:12;;;;;;;5.10;3.13;;;;;;;;;;4861920;29;20131;-86
2023/07/11 05:13:41;;;;;;;6.82;3.55;;;;;;;;;;4865013;29;20048;-86
2023/07/11 05:16:14;;;;;;;8.05;3.95;;;;;;;;;;4879018;29;20052;-86
2023/07/11 05:18:42;;;;;;;6.05;3.88;;;;;;;;;;4863600;29;20079;-86
2023/07/11 05:21:10;;;;;;;6.18;3.67;;;;;;;;;;4833424;29;20899;-86
2023/07/11 05:23:37;;;;;;;7.45;3.88;;;;;;;;;;4835764;29;20036;-86
2023/07/11 05:26:04;;;;;;;9.80;3.47;;;;;;;;;;4882912;29;20046;-85
2023/07/11 05:28:32;;;;;;;5.72;3.30;;;;;;;;;;4853078;29;20323;-85
2023/07/11 05:31:02;;;;;;;8.13;3.95;;;;;;;;;;4869797;29;20063;-86
2023/07/11 05:33:30;;;;;;;5.90;3.20;;;;;;;;;;4887599;29;20059;-86
2023/07/11 05:39:20;;;;;;;7.45;3.42;;;;;;;;;;4883036;29;20056;-85
2023/07/11 05:41:51;;;;;;;7.32;3.35;;;;;;;;;;4883621;29;20130;-86
2023/07/11 05:44:19;;;;;;;7.97;3.80;;;;;;;;;;4836690;29;20462;-86
2023/07/11 05:46:46;;;;;;;5.63;3.40;;;;;;;;;;4867853;29;20566;-85
2023/07/11 05:49:13;;;;;;;8.15;3.90;;;;;;;;;;4866459;29;20525;-85
2023/07/11 05:51:42;;;;;;;6.87;3.47;;;;;;;;;;4881212;29;20043;-86
2023/07/11 05:54:10;;;;;;;6.63;3.60;;;;;;;;;;4844365;29;20667;-85
2023/07/11 05:56:37;;;;;;;5.13;3.50;;;;;;;;;;4866872;29;21583;-86
2023/07/11 05:59:04;;;;;;;6.97;3.42;;;;;;;;;;4896967;29;20044;-86
2023/07/11 06:01:32;;;;;;;5.40;3.35;;;;;;;;;;4871382;29;20554;-86
2023/07/11 06:04:17;;;;;;;5.75;3.10;;;;;;;;;;4853474;29;20044;-86
2023/07/11 06:06:44;;;;;;;6.07;3.80;;;;;;;;;;4868125;29;20058;-86
2023/07/11 06:09:15;;;;;;;5.43;3.57;;;;;;;;;;4878793;29;20045;-86
2023/07/11 06:11:42;;;;;;;7.22;3.55;;;;;;;;;;4856151;29;20558;-85
2023/07/11 06:14:10;;;;;;;9.38;3.50;;;;;;;;;;4845663;29;20040;-86
2023/07/11 06:16:37;;;;;;;9.10;3.22;;;;;;;;;;4899418;29;20052;-85
2023/07/11 06:19:05;;;;;;;5.00;3.50;;;;;;;;;;4869803;29;20513;-86
2023/07/11 06:21:32;;;;;;;5.57;3.70;;;;;;;;;;4872299;29;20102;-86
2023/07/11 06:23:59;;;;;;;8.27;3.40;;;;;;;;;;4892726;29;20108;-85
2023/07/11 06:26:27;;;;;;;5.03;3.53;;;;;;;;;;4884786;29;21163;-85
2023/07/11 06:28:55;;;;;;;5.50;3.65;;;;;;;;;;4853126;29;20761;-86
2023/07/11 06:31:22;;;;;;;3.45;3.15;;;;;;;;;;4854846;29;20048;-86
2023/07/11 06:33:50;;;;;;;5.23;3.77;;;;;;;;;;4887444;29;20095;-86
2023/07/11 06:36:19;;;;;;;5.35;3.33;;;;;;;;;;4847132;29;20044;-86
2023/07/11 06:38:46;;;;;;;5.72;3.42;;;;;;;;;;4880895;29;20131;-85
2023/07/11 06:41:13;;;;;;;7.55;3.25;;;;;;;;;;4863268;29;20391;-86
2023/07/11 06:43:41;;;;;;;7.87;3.43;;;;;;;;;;4851428;29;20158;-86
2023/07/11 06:46:09;;;;;;;4.72;3.10;;;;;;;;;;4864500;29;20308;-86
2023/07/11 06:48:36;;;;;;;6.22;3.08;;;;;;;;;;4853137;29;20107;-86
2023/07/11 06:51:04;;;;;;;5.68;3.10;;;;;;;;;;4863322;29;20052;-86
2023/07/11 06:53:32;;;;;;;7.10;3.70;;;;;;;;;;4850252;29;20494;-86
2023/07/11 06:55:59;;;;;;;6.25;3.22;;;;;;;;;;4860135;29;20087;-86
2023/07/11 06:58:28;;;;;;;7.55;2.97;;;;;;;;;;4865606;29;20066;-86
2023/07/11 07:01:14;;;;;;;6.40;3.17;;;;;;;;;;4881508;29;20044;-86
2023/07/11 07:03:42;;;;;;;6.20;3.38;;;;;;;;;;4899567;29;20047;-86
2023/07/11 07:06:13;;;;;;;6.32;3.10;;;;;;;;;;4868275;29;20082;-86
2023/07/11 07:08:40;;;;;;;5.13;3.00;;;;;;;;;;4850720;29;20051;-86
2023/07/11 07:11:08;;;;;;;6.57;2.97;;;;;;;;;;4846131;29;20040;-86
2023/07/11 07:13:35;;;;;;;6.13;3.05;;;;;;;;;;4865876;29;20388;-86
2023/07/11 07:16:03;;;;;;;7.07;3.20;;;;;;;;;;4865330;29;20044;-86
2023/07/11 07:18:34;;;;;;;6.13;3.58;;;;;;;;;;4872634;29;20123;-86
2023/07/11 07:21:04;;;;;;;5.22;3.22;;;;;;;;;;4880356;29;20040;-86
2023/07/11 07:23:30;;;;;;;7.85;3.08;;;;;;;;;;4882357;29;20387;-87
2023/07/11 07:25:58;;;;;;;3.33;2.70;;;;;;;;;;4894770;29;20448;-86
2023/07/11 07:28:25;;;;;;;;;;;;;;;;;;4864852;29;20044;-86
2023/07/11 07:30:53;;;;;;;5.20;3.33;;;;;;;;;;4883429;29;19971;-86
2023/07/11 07:33:23;;;;;;;5.07;2.95;;;;;;;;;;4868136;29;20052;-86
2023/07/11 07:35:54;;;;;;;3.70;2.75;;;;;;;;;;4863415;29;20052;-86
2023/07/11 07:38:22;;;;;;;5.00;2.88;;;;;;;;;;4865036;29;20048;-86
2023/07/11 07:40:52;;;;;;;4.13;2.63;;;;;;;;;;4867993;29;20052;-86
2023/07/11 07:43:20;;;;;;;7.78;3.03;;;;;;;;;;4842235;29;20048;-86
2023/07/11 07:45:51;;;;;;;4.60;3.08;;;;;;;;;;4849083;29;20055;-86
2023/07/11 07:48:18;;;;;;;7.97;2.85;;;;;;;;;;4862615;29;20138;-86
2023/07/11 07:50:45;;;;;;;3.35;3.05;;;;;;;;;;4852641;29;20096;-86
2023/07/11 07:53:13;;;;;;;5.77;3.23;;;;;;;;;;4876339;29;20067;-87
2023/07/11 07:55:40;;;;;;;5.15;3.20;;;;;;;;;;4866663;29;20340;-86
2023/07/11 07:58:08;;;;;;;6.43;2.95;;;;;;;;;;4874094;29;20048;-86
2023/07/11 08:00:35;;;;;;;5.20;3.08;;;;;;;;;;4865777;29;20040;-87
2023/07/11 08:03:03;;;;;;;5.05;2.35;;;;;;;;;;4840362;29;20048;-86
2023/07/11 08:05:31;;;;;;;4.82;2.78;;;;;;;;;;4865963;29;20052;-87
2023/07/11 08:07:58;;;;;;;6.70;3.30;;;;;;;;;;4878240;29;20060;-87
2023/07/11 08:10:26;;;;;;;4.72;2.85;;;;;;;;;;4874907;29;20129;-86
2023/07/11 08:12:56;;;;;;;5.53;2.75;;;;;;;;;;4883654;29;20045;-86
2023/07/11 08:15:24;;;;;;;5.63;2.95;;;;;;;;;;4890408;29;20048;-86
2023/07/11 08:17:51;;;;;;;5.90;2.80;;;;;;;;;;4862912;29;20387;-87
2023/07/11 08:20:18;;;;;;;5.10;2.15;;;;;;;;;;4872877;29;20044;-87
2023/07/11 08:22:45;;;;;;;3.92;2.33;;;;;;;;;;4859204;29;20083;-87
2023/07/11 08:25:14;;;;;;;11.18;2.90;;;;;;;;;;4839010;29;20147;-86
2023/07/11 08:27:43;;;;;;;3.95;2.15;;;;;;;;;;4849257;29;20044;-86
2023/07/11 08:30:10;;;;;;;3.33;2.20;;;;;;;;;;4836052;29;20053;-86
2023/07/11 08:32:38;;;;;;;3.95;2.40;;;;;;;;;;4865607;29;20064;-87
2023/07/11 08:35:06;;;;;;;3.95;2.20;;;;;;;;;;4862265;29;20049;-87
2023/07/11 08:37:34;;;;;;;4.80;2.20;;;;;;;;;;4853629;29;20084;-87
2023/07/11 08:40:01;;;;;;;5.40;2.63;;;;;;;;;;4859893;29;20051;-87
2023/07/11 08:42:28;;;;;;;;;;;;;;;;;;4840748;29;20472;-87
2023/07/11 08:45:15;;;;;;;5.32;2.38;;;;;;;;;;4867169;29;19919;-87
2023/07/11 08:47:43;;;;;;;5.80;2.25;;;;;;;;;;4871877;29;20108;-86
2023/07/11 08:50:18;;;;;;;3.95;2.17;;;;;;;;;;4835364;29;20411;-87
2023/07/11 08:52:46;;;;;;;4.15;2.20;;;;;;;;;;4893492;29;20119;-87
2023/07/11 08:55:31;;;;;;;4.05;2.25;;;;;;;;;;4852528;29;20045;-87
2023/07/11 08:58:13;;;;;;;5.68;2.35;;;;;;;;;;4871438;29;20047;-87
2023/07/11 09:00:40;;;;;;;7.97;2.10;;;;;;;;;;4844921;29;20048;-87
2023/07/11 09:03:29;;;;;;;6.95;2.15;;;;;;;;;;4835441;29;20060;-87
2023/07/11 09:06:07;;;;;;;4.80;2.00;;;;;;;;;;4864479;29;20088;-87
2023/07/11 09:08:36;;;;;;;6.07;2.50;;;;;;;;;;4869602;29;20543;-87
2023/07/11 09:11:22;;;;;;;4.82;2.28;;;;;;;;;;4851482;29;20045;-87
2023/07/11 09:14:07;;;;;;;5.65;2.78;;;;;;;;;;4869493;29;20051;-86
2023/07/11 09:16:58;;;;;;;4.32;2.33;;;;;;;;;;4872527;29;20040;-87
2023/07/11 09:19:44;;;;;;;4.63;1.98;;;;;;;;;;4858131;29;20045;-87
2023/07/11 09:22:31;;;;;;;4.40;2.03;;;;;;;;;;4883538;29;20048;-87
2023/07/11 09:24:59;;;;;;;4.18;1.92;;;;;;;;;;4867849;29;20065;-87
2023/07/11 09:27:37;;;;;;;5.28;2.70;;;;;;;;;;4868677;29;20044;-87
2023/07/11 09:30:22;;;;;;;6.95;2.70;;;;;;;;;;4860233;29;20040;-87
2023/07/11 09:32:49;;;;;;;5.43;2.63;;;;;;;;;;4866649;29;20056;-87
2023/07/11 09:35:34;;;;;;;4.22;2.40;;;;;;;;;;4838318;29;22335;-87
2023/07/11 09:38:07;;;;;;;7.13;2.65;;;;;;;;;;4864917;29;20040;-87
2023/07/11 09:40:48;;;;;;;6.50;2.28;;;;;;;;;;4839663;29;20047;-87
2023/07/11 09:43:15;;;;;;;5.55;2.30;;;;;;;;;;4848206;29;21180;-88
2023/07/11 09:45:44;;;;;;;5.80;2.30;;;;;;;;;;4866415;29;20587;-88
2023/07/11 09:48:18;;;;;;;5.28;2.30;;;;;;;;;;4854146;29;20059;-88
2023/07/11 09:51:05;;;;;;;4.75;2.05;;;;;;;;;;4853020;29;20044;-88
2023/07/11 09:53:33;;;;;;;4.18;1.83;;;;;;;;;;4863371;29;20500;-87
2023/07/11 09:56:04;;;;;;;6.05;2.20;;;;;;;;;;4845335;29;20048;-87
2023/07/11 09:58:32;;;;;;;5.25;1.90;;;;;;;;;;4842016;29;20047;-87
2023/07/11 10:01:04;;;;;;;4.00;1.90;;;;;;;;;;4836788;29;20061;-87
2023/07/11 10:03:34;;;;;;;4.95;2.13;;;;;;;;;;4864714;29;20383;-87
2023/07/11 10:06:02;;;;;;;5.47;2.17;;;;;;;;;;4834643;29;20399;-87
2023/07/11 10:08:49;;;;;;;9.13;2.40;;;;;;;;;;4836240;29;20056;-87
2023/07/11 10:11:17;;;;;;;2.57;1.70;;;;;;;;;;4863790;29;20052;-87
2023/07/11 10:13:47;;;;;;;4.07;2.10;;;;;;;;;;4855704;29;20387;-88
2023/07/11 10:16:19;;;;;;;2.97;1.98;;;;;;;;;;4838333;29;20143;-87
2023/07/11 10:18:46;;;;;;;4.85;1.95;;;;;;;;;;4836487;29;20047;-87
2023/07/11 10:21:18;;;;;;;4.63;1.80;;;;;;;;;;4867526;29;20126;-88
2023/07/11 10:23:45;;;;;;;8.93;1.95;;;;;;;;;;4854592;29;20131;-87
2023/07/11 10:26:31;;;;;;;3.67;2.00;;;;;;;;;;4859889;29;20060;-88
2023/07/11 10:29:07;;;;;;;7.00;1.80;;;;;;;;;;4862103;29;20128;-87
2023/07/11 10:31:35;;;;;;;2.38;1.65;;;;;;;;;;4846595;29;20044;-87
2023/07/11 10:34:05;;;;;;;2.78;1.90;;;;;;;;;;4843671;29;20123;-88
2023/07/11 10:36:40;;;;;;;4.25;1.80;;;;;;;;;;4859738;29;20592;-87
2023/07/11 10:39:15;;;;;;;4.05;1.52;;;;;;;;;;4840318;29;20456;-87
2023/07/11 10:41:44;;;;;;;3.10;1.58;;;;;;;;;;4860006;29;20608;-87
2023/07/11 10:44:19;;;;;;;3.80;1.90;;;;;;;;;;4827126;29;20040;-88
2023/07/11 10:46:48;;;;;;;3.33;1.65;;;;;;;;;;4854819;29;20144;-87
2023/07/11 10:49:24;;;;;;;3.85;1.80;;;;;;;;;;4843337;29;20647;-88
2023/07/11 10:52:10;;;;;;;4.07;1.40;;;;;;;;;;4834367;29;20408;-88
2023/07/11 10:54:59;;;;;;;5.65;1.77;;;;;;;;;;4879616;29;20052;-88
2023/07/11 10:57:33;;;;;;;5.25;1.67;;;;;;;;;;4863286;29;20087;-87
2023/07/11 11:00:08;;;;;;;5.28;1.70;;;;;;;;;;4859259;29;20059;-87
2023/07/11 11:02:55;;;;;;;4.00;1.83;;;;;;;;;;4845843;29;20044;-87
2023/07/11 11:05:43;;;;;;;3.80;1.83;;;;;;;;;;4862748;29;20532;-88
2023/07/11 11:08:18;;;;;;;4.30;1.80;;;;;;;;;;4861077;29;20127;-87
2023/07/11 11:11:04;;;;;;;5.05;1.50;;;;;;;;;;4864927;29;20092;-88
2023/07/11 11:13:43;;;;;;;6.50;1.87;;;;;;;;;;4862926;29;20056;-88
2023/07/11 11:16:37;;;;;;;5.30;1.95;;;;;;;;;;4858987;29;20443;-88
2023/07/11 11:19:27;;;;;;;3.72;1.77;;;;;;;;;;4877119;29;20128;-88
2023/07/11 11:22:15;;;;;;;5.73;1.73;;;;;;;;;;4874220;29;20040;-87
2023/07/11 11:25:00;;;;;;;4.55;1.77;;;;;;;;;;4883434;29;20338;-88
2023/07/11 11:27:46;;;;;;;2.67;1.73;;;;;;;;;;4850511;29;20399;-87
2023/07/11 11:30:42;;;;;;;3.80;2.20;;;;;;;;;;4876958;29;20072;-87
2023/07/11 11:33:28;;;;;;;3.35;1.60;;;;;;;;;;4868251;29;20055;-87
2023/07/11 11:39:39;;;;;;;4.35;1.50;;;;;;;;;;4877000;29;20484;-87
2023/07/11 11:42:20;;;;;;;3.28;1.50;;;;;;;;;;4878515;29;20075;-88
2023/07/11 11:45:04;;;;;;;5.68;1.67;;;;;;;;;;4867924;29;20040;-88
2023/07/11 11:47:32;;;;;;;5.22;1.73;;;;;;;;;;4847282;29;20039;-87
2023/07/11 11:50:19;;;;;;;5.00;1.20;;;;;;;;;;4845642;29;20048;-87
2023/07/11 11:52:48;;;;;;;3.08;1.67;;;;;;;;;;4861686;29;20056;-87
2023/07/11 11:55:33;;;;;;;3.33;1.50;;;;;;;;;;4845032;29;22077;-87
2023/07/11 11:57:59;;;;;;;3.67;1.45;;;;;;;;;;4843017;29;20527;-88
2023/07/11 12:00:45;;;;;;;3.70;1.95;;;;;;;;;;4844785;29;20049;-88
2023/07/11 12:03:30;;;;;;;5.25;1.30;;;;;;;;;;4840955;29;20707;-88
2023/07/11 12:05:59;;;;;;;5.10;1.88;;;;;;;;;;4843103;29;20056;-88
2023/07/11 12:08:35;;;;;;;3.72;1.60;;;;;;;;;;4834002;29;22169;-87
2023/07/11 12:11:21;;;;;;;3.20;1.63;;;;;;;;;;4829755;29;20556;-87
2023/07/11 12:14:18;;;;;;;;;;;;;;;;;;;;;
2023/07/11 12:16:48;;;;;;;7.00;1.60;;;;;;;;;;4840772;29;20056;-87
2023/07/11 12:19:31;;;;;;;2.47;1.65;;;;;;;;;;4842212;29;21343;-87
2023/07/11 12:22:04;;;;;;;2.67;1.60;;;;;;;;;;4858201;29;20106;-88
2023/07/11 12:24:36;;;;;;;3.35;1.50;;;;;;;;;;4846150;29;20060;-88
2023/07/11 12:27:52;;;;;;;5.20;1.80;;;;;;;;;;4840494;29;20054;-87
2023/07/11 12:30:45;;;;;;;4.15;1.67;;;;;;;;;;4808247;29;20222;-88
2023/07/11 12:33:40;;;;;;;3.75;1.67;;;;;;;;;;4818638;29;20053;-87
2023/07/11 12:36:26;;;;;;;5.45;1.85;;;;;;;;;;4837394;29;20496;-88
2023/07/11 12:39:13;;;;;;;3.72;1.95;;;;;;;;;;4845225;29;20045;-87
2023/07/11 12:42:03;;;;;;;3.85;1.70;;;;;;;;;;4866176;29;20556;-87
2023/07/11 12:44:31;;;;;;;4.55;1.63;;;;;;;;;;4869850;29;20067;-88
2023/07/11 12:46:59;;;;;;;5.80;1.73;;;;;;;;;;4860590;29;20117;-87
2023/07/11 12:49:26;;;;;;;;;;;;;;;;;;4851656;29;20055;-88
2023/07/11 12:51:53;;;;;;;;;;;;;;;;;;4847381;29;19926;-88
2023/07/11 12:54:26;;;;;;;6.00;1.80;;;;;;;;;;4879305;29;19929;-88
2023/07/11 12:56:54;;;;;;;6.05;1.83;;;;;;;;;;4869732;29;20037;-88
2023/07/11 12:59:40;;;;;;;8.45;1.80;;;;;;;;;;4868275;29;20391;-87
2023/07/11 13:02:09;;;;;;;3.73;1.40;;;;;;;;;;4855206;29;20052;-87
2023/07/11 13:04:37;;;;;;;2.83;1.77;;;;;;;;;;4839811;29;20136;-88
2023/07/11 13:07:09;;;;;;;4.63;1.98;;;;;;;;;;4868738;29;20044;-88
2023/07/11 13:09:43;;;;;;;3.72;2.00;;;;;;;;;;4855134;29;20108;-87
2023/07/11 13:12:11;;;;;;;3.78;1.70;;;;;;;;;;4859098;29;20108;-88
2023/07/11 13:14:43;;;;;;;3.92;2.08;;;;;;;;;;4837615;29;20167;-88
2023/07/11 13:17:20;;;;;;;4.63;1.70;;;;;;;;;;4852184;29;20127;-88
2023/07/11 13:19:48;;;;;;;3.67;1.88;;;;;;;;;;4853771;29;20458;-88
2023/07/11 13:22:16;;;;;;;2.05;1.70;;;;;;;;;;4853344;29;20060;-88
2023/07/11 13:24:44;;;;;;;3.55;1.80;;;;;;;;;;4838784;29;20044;-88
2023/07/11 13:27:19;;;;;;;3.35;1.80;;;;;;;;;;4850036;29;20052;-87
2023/07/11 13:29:55;;;;;;;3.08;2.03;;;;;;;;;;4852373;29;20055;-88
2023/07/11 13:32:26;;;;;;;2.47;2.00;;;;;;;;;;4854302;29;20045;-88
2023/07/11 13:34:57;;;;;;;5.88;1.70;;;;;;;;;;4865563;29;20052;-88
2023/07/11 13:37:36;;;;;;;3.88;2.03;;;;;;;;;;4853016;29;20072;-89
2023/07/11 13:40:05;;;;;;;3.47;2.17;;;;;;;;;;4833550;29;20405;-87
2023/07/11 13:42:33;;;;;;;5.70;2.17;;;;;;;;;;4836205;29;20526;-88
2023/07/11 13:45:02;;;;;;;3.80;2.00;;;;;;;;;;4843963;29;20488;-88
2023/07/11 13:47:40;;;;;;;3.85;2.28;;;;;;;;;;4835372;29;20044;-87
2023/07/11 13:50:26;;;;;;;6.00;2.00;;;;;;;;;;4830548;29;20064;-88
2023/07/11 13:52:55;;;;;;;3.58;2.00;;;;;;;;;;4880223;29;20055;-88
2023/07/11 13:55:42;;;;;;;7.35;2.00;;;;;;;;;;4866752;29;20515;-88
2023/07/11 13:58:11;;;;;;;3.95;1.90;;;;;;;;;;4862014;29;20040;-88
2023/07/11 14:00:41;;;;;;;2.42;1.75;;;;;;;;;;4865744;29;20373;-88
2023/07/11 14:03:21;;;;;;;3.58;2.00;;;;;;;;;;4843237;29;20052;-88
2023/07/11 14:05:49;;;;;;;2.90;2.20;;;;;;;;;;4849585;29;20052;-88
2023/07/11 14:08:18;;;;;;;4.13;2.40;;;;;;;;;;4832512;29;20135;-88
2023/07/11 14:10:46;;;;;;;3.67;2.13;;;;;;;;;;4867391;29;20635;-87
2023/07/11 14:13:14;;;;;;;5.00;1.73;;;;;;;;;;4845084;29;20048;-88
2023/07/11 14:15:46;;;;;;;4.35;2.25;;;;;;;;;;4867954;29;20056;-87
2023/07/11 14:18:13;;;;;;;4.10;2.17;;;;;;;;;;4846160;29;20155;-88
2023/07/11 14:20:41;;;;;;;5.40;2.30;;;;;;;;;;4848694;29;20032;-88
2023/07/11 14:23:08;;;;;;;;;;;;;;;;;;4847254;29;20041;-88
2023/07/11 14:25:35;;;;;;;4.93;2.17;;;;;;;;;;4868503;29;20371;-87
2023/07/11 14:28:02;;;;;;;3.92;1.90;;;;;;;;;;4849403;29;20052;-87
2023/07/11 14:30:30;;;;;;;2.55;1.92;;;;;;;;;;4881356;29;20044;-88
2023/07/11 14:32:57;;;;;;;4.53;2.05;;;;;;;;;;4831338;29;20088;-88
2023/07/11 14:35:25;;;;;;;;;;;;;;;;;;4849155;29;20041;-88
2023/07/11 14:37:53;;;;;;;5.78;2.40;;;;;;;;;;4867408;29;19927;-88
2023/07/11 14:40:21;;;;;;;5.20;2.40;;;;;;;;;;4860624;29;20052;-88
2023/07/11 14:42:49;;;;;;;4.90;2.38;;;;;;;;;;4838807;29;20476;-88
2023/07/11 14:45:35;;;;;;;2.80;2.00;;;;;;;;;;4834251;29;20139;-88
2023/07/11 14:48:07;;;;;;;3.25;2.13;;;;;;;;;;4877868;29;20492;-88
2023/07/11 14:50:34;;;;;;;4.93;2.20;;;;;;;;;;4849923;29;20051;-88
2023/07/11 14:53:01;;;;;;;6.25;2.42;;;;;;;;;;4833292;29;20124;-88
2023/07/11 14:55:28;;;;;;;;;;;;;;;;;;4847994;29;20044;-88
2023/07/11 14:57:57;;;;;;;5.85;2.53;;;;;;;;;;4863416;29;20484;-87
2023/07/11 15:00:28;;;;;;;3.47;1.92;;;;;;;;;;4850270;29;20119;-88
2023/07/11 15:02:55;;;;;;;3.53;2.28;;;;;;;;;;4865673;29;20066;-88
2023/07/11 15:05:23;;;;;;;4.22;2.42;;;;;;;;;;4851794;29;20094;-89
2023/07/11 15:07:55;;;;;;;5.53;2.55;;;;;;;;;;4880671;29;20048;-89
2023/07/11 15:10:27;;;;;;;3.53;2.33;;;;;;;;;;4837807;29;20395;-88
2023/07/11 15:12:54;;;;;;;4.65;2.60;;;;;;;;;;4867137;29;20071;-88
2023/07/11 15:15:26;;;;;;;5.45;3.38;;;;;;;;;;4837950;29;20057;-87